sensor_id;sensor_type;location;lat;lon;timestamp;pressure;altitude;pressure_sealevel;temperature;humidity
22755;BME280;11544;42.020;23.094;2022-10-26T00:00:48;97570.19;;;13.89;70.06
22755;BME280;11544;42.020;23.094;2022-10-26T00:03:14;97573.78;;;13.66;70.32
22755;BME280;11544;42.020;23.094;2022-10-26T00:05:40;97567.56;;;13.69;70.48
22755;BME280;11544;42.020;23.094;2022-10-26T00:08:07;97575.09;;;13.56;70.76
22755;BME280;11544;42.020;23.094;2022-10-26T00:10:36;97575.53;;;13.45;71.40
22755;BME280;11544;42.020;23.094;2022-10-26T00:13:04;97575.28;;;13.51;70.84
22755;BME280;11544;42.020;23.094;2022-10-26T00:15:30;97581.78;;;13.41;71.69
22755;BME280;11544;42.020;23.094;2022-10-26T00:17:56;97574.13;;;13.37;72.13
22755;BME280;11544;42.020;23.094;2022-10-26T00:20:22;97574.44;;;13.29;72.09
22755;BME280;11544;42.020;23.094;2022-10-26T00:22:48;97577.81;;;13.53;72.07
22755;BME280;11544;42.020;23.094;2022-10-26T00:25:14;97574.63;;;13.02;74.00
22755;BME280;11544;42.020;23.094;2022-10-26T00:27:39;97579.19;;;12.97;75.31
22755;BME280;11544;42.020;23.094;2022-10-26T00:30:06;97578.81;;;13.06;74.33
22755;BME280;11544;42.020;23.094;2022-10-26T00:32:32;97580.66;;;13.04;74.65
22755;BME280;11544;42.020;23.094;2022-10-26T00:34:57;97583.34;;;13.01;74.92
22755;BME280;11544;42.020;23.094;2022-10-26T00:37:23;97580.81;;;13.22;74.17
22755;BME280;11544;42.020;23.094;2022-10-26T00:39:49;97586.97;;;13.21;73.77
22755;BME280;11544;42.020;23.094;2022-10-26T00:42:19;97583.16;;;13.29;73.29
22755;BME280;11544;42.020;23.094;2022-10-26T00:49:48;97584.69;;;13.35;72.42
22755;BME280;11544;42.020;23.094;2022-10-26T00:52:17;97593.25;;;13.17;73.87
22755;BME280;11544;42.020;23.094;2022-10-26T00:54:45;97587.22;;;13.14;74.25
22755;BME280;11544;42.020;23.094;2022-10-26T00:57:13;97589.22;;;12.86;75.95
22755;BME280;11544;42.020;23.094;2022-10-26T00:59:41;97584.59;;;13.14;75.60
22755;BME280;11544;42.020;23.094;2022-10-26T01:02:07;97579.31;;;12.70;77.04
22755;BME280;11544;42.020;23.094;2022-10-26T01:04:53;97590.97;;;12.85;76.76
22755;BME280;11544;42.020;23.094;2022-10-26T01:07:19;97586.41;;;13.12;75.32
22755;BME280;11544;42.020;23.094;2022-10-26T01:09:45;97584.28;;;13.00;75.76
22755;BME280;11544;42.020;23.094;2022-10-26T01:12:11;97582.81;;;13.15;75.33
22755;BME280;11544;42.020;23.094;2022-10-26T01:14:37;97588.97;;;13.14;75.60
22755;BME280;11544;42.020;23.094;2022-10-26T01:22:28;97589.50;;;12.78;75.61
22755;BME280;11544;42.020;23.094;2022-10-26T01:25:14;97586.84;;;13.02;74.49
22755;BME280;11544;42.020;23.094;2022-10-26T01:27:45;97587.53;;;13.07;74.90
22755;BME280;11544;42.020;23.094;2022-10-26T01:30:29;97590.63;;;12.95;75.11
22755;BME280;11544;42.020;23.094;2022-10-26T01:38:32;97591.34;;;13.20;73.59
22755;BME280;11544;42.020;23.094;2022-10-26T01:44:11;97594.94;;;12.96;74.91
22755;BME280;11544;42.020;23.094;2022-10-26T01:46:42;97593.34;;;12.91;74.84
22755;BME280;11544;42.020;23.094;2022-10-26T01:49:11;97587.69;;;13.02;74.83
22755;BME280;11544;42.020;23.094;2022-10-26T01:51:39;97594.97;;;12.94;74.61
22755;BME280;11544;42.020;23.094;2022-10-26T01:54:06;97589.38;;;13.03;74.98
22755;BME280;11544;42.020;23.094;2022-10-26T01:56:35;97586.28;;;12.93;74.86
22755;BME280;11544;42.020;23.094;2022-10-26T02:07:00;97593.31;;;12.69;75.66
22755;BME280;11544;42.020;23.094;2022-10-26T02:09:58;97601.34;;;12.65;76.20
22755;BME280;11544;42.020;23.094;2022-10-26T02:15:06;97594.28;;;12.43;77.75
22755;BME280;11544;42.020;23.094;2022-10-26T02:20:12;97602.31;;;12.62;76.18
22755;BME280;11544;42.020;23.094;2022-10-26T02:22:44;97602.09;;;12.68;75.88
22755;BME280;11544;42.020;23.094;2022-10-26T02:25:16;97603.19;;;12.61;76.16
22755;BME280;11544;42.020;23.094;2022-10-26T02:27:50;97601.97;;;12.71;76.08
22755;BME280;11544;42.020;23.094;2022-10-26T02:30:18;97601.63;;;12.57;76.20
22755;BME280;11544;42.020;23.094;2022-10-26T02:32:47;97602.94;;;12.45;76.62
22755;BME280;11544;42.020;23.094;2022-10-26T02:35:16;97604.59;;;12.23;77.63
22755;BME280;11544;42.020;23.094;2022-10-26T02:37:46;97611.91;;;12.38;78.11
22755;BME280;11544;42.020;23.094;2022-10-26T02:40:15;97606.69;;;12.13;79.36
22755;BME280;11544;42.020;23.094;2022-10-26T02:42:44;97617.78;;;12.20;78.78
22755;BME280;11544;42.020;23.094;2022-10-26T02:45:14;97611.03;;;12.14;79.65
22755;BME280;11544;42.020;23.094;2022-10-26T02:47:41;97614.25;;;12.21;79.65
22755;BME280;11544;42.020;23.094;2022-10-26T02:50:08;97609.28;;;12.15;80.01
22755;BME280;11544;42.020;23.094;2022-10-26T02:57:41;97621.28;;;11.95;81.80
22755;BME280;11544;42.020;23.094;2022-10-26T03:00:12;97614.84;;;12.04;81.74
22755;BME280;11544;42.020;23.094;2022-10-26T03:02:41;97617.59;;;12.01;80.98
22755;BME280;11544;42.020;23.094;2022-10-26T03:05:11;97620.94;;;11.78;81.09
22755;BME280;11544;42.020;23.094;2022-10-26T03:07:38;97625.38;;;12.02;81.12
22755;BME280;11544;42.020;23.094;2022-10-26T03:10:04;97622.50;;;12.10;80.93
22755;BME280;11544;42.020;23.094;2022-10-26T03:12:30;97621.56;;;12.11;80.38
22755;BME280;11544;42.020;23.094;2022-10-26T03:14:56;97617.66;;;12.23;80.04
22755;BME280;11544;42.020;23.094;2022-10-26T03:17:21;97621.09;;;12.00;80.17
22755;BME280;11544;42.020;23.094;2022-10-26T03:19:47;97616.59;;;12.05;80.54
22755;BME280;11544;42.020;23.094;2022-10-26T03:22:12;97622.50;;;12.10;81.05
22755;BME280;11544;42.020;23.094;2022-10-26T03:24:38;97628.53;;;12.12;81.33
22755;BME280;11544;42.020;23.094;2022-10-26T03:27:03;97629.38;;;12.13;81.13
22755;BME280;11544;42.020;23.094;2022-10-26T03:29:29;97634.91;;;11.77;82.70
22755;BME280;11544;42.020;23.094;2022-10-26T03:31:55;97630.59;;;11.76;83.41
22755;BME280;11544;42.020;23.094;2022-10-26T03:34:20;97639.84;;;11.86;83.69
22755;BME280;11544;42.020;23.094;2022-10-26T03:36:46;97639.88;;;11.84;84.36
22755;BME280;11544;42.020;23.094;2022-10-26T03:39:12;97636.84;;;11.72;84.46
22755;BME280;11544;42.020;23.094;2022-10-26T03:41:38;97637.47;;;11.78;84.63
22755;BME280;11544;42.020;23.094;2022-10-26T03:44:03;97642.78;;;11.75;84.83
22755;BME280;11544;42.020;23.094;2022-10-26T03:46:29;97643.72;;;11.74;85.53
22755;BME280;11544;42.020;23.094;2022-10-26T03:48:55;97640.19;;;11.75;85.53
22755;BME280;11544;42.020;23.094;2022-10-26T03:51:22;97651.44;;;11.77;84.85
22755;BME280;11544;42.020;23.094;2022-10-26T03:53:47;97651.88;;;11.37;86.86
22755;BME280;11544;42.020;23.094;2022-10-26T03:56:13;97648.19;;;11.16;88.32
22755;BME280;11544;42.020;23.094;2022-10-26T03:58:38;97653.13;;;11.25;89.10
22755;BME280;11544;42.020;23.094;2022-10-26T04:01:04;97658.66;;;11.42;89.78
22755;BME280;11544;42.020;23.094;2022-10-26T04:03:30;97658.06;;;11.05;91.93
22755;BME280;11544;42.020;23.094;2022-10-26T04:05:58;97650.00;;;11.40;90.40
22755;BME280;11544;42.020;23.094;2022-10-26T04:08:24;97654.72;;;11.84;91.83
22755;BME280;11544;42.020;23.094;2022-10-26T04:10:50;97655.84;;;11.75;87.46
22755;BME280;11544;42.020;23.094;2022-10-26T04:13:15;97652.28;;;11.51;87.08
22755;BME280;11544;42.020;23.094;2022-10-26T04:15:41;97658.22;;;11.56;88.75
22755;BME280;11544;42.020;23.094;2022-10-26T04:18:08;97661.16;;;11.45;90.08
22755;BME280;11544;42.020;23.094;2022-10-26T04:20:38;97660.25;;;11.47;89.95
22755;BME280;11544;42.020;23.094;2022-10-26T04:23:08;97652.16;;;11.56;90.36
22755;BME280;11544;42.020;23.094;2022-10-26T04:25:35;97657.63;;;11.48;89.16
22755;BME280;11544;42.020;23.094;2022-10-26T04:28:02;97663.34;;;11.31;90.04
22755;BME280;11544;42.020;23.094;2022-10-26T04:30:28;97663.06;;;11.40;90.74
22755;BME280;11544;42.020;23.094;2022-10-26T04:32:54;97661.78;;;11.26;89.89
22755;BME280;11544;42.020;23.094;2022-10-26T04:35:20;97665.16;;;11.01;92.39
22755;BME280;11544;42.020;23.094;2022-10-26T04:37:45;97657.94;;;11.37;91.16
22755;BME280;11544;42.020;23.094;2022-10-26T04:40:11;97675.91;;;10.90;91.96
22755;BME280;11544;42.020;23.094;2022-10-26T04:42:44;97676.28;;;10.76;93.93
22755;BME280;11544;42.020;23.094;2022-10-26T04:45:12;97682.75;;;10.94;94.12
22755;BME280;11544;42.020;23.094;2022-10-26T04:47:39;97680.38;;;11.15;92.86
22755;BME280;11544;42.020;23.094;2022-10-26T04:50:06;97696.81;;;11.18;93.54
22755;BME280;11544;42.020;23.094;2022-10-26T04:52:32;97686.78;;;11.05;92.75
22755;BME280;11544;42.020;23.094;2022-10-26T04:54:58;97693.72;;;11.06;93.65
22755;BME280;11544;42.020;23.094;2022-10-26T04:57:23;97705.47;;;11.19;95.40
22755;BME280;11544;42.020;23.094;2022-10-26T04:59:49;97704.63;;;11.18;96.42
22755;BME280;11544;42.020;23.094;2022-10-26T05:02:15;97708.66;;;11.29;96.74
22755;BME280;11544;42.020;23.094;2022-10-26T05:04:46;97712.66;;;11.40;98.28
22755;BME280;11544;42.020;23.094;2022-10-26T05:07:12;97708.38;;;11.10;96.45
22755;BME280;11544;42.020;23.094;2022-10-26T05:09:38;97714.63;;;12.17;100.00
22755;BME280;11544;42.020;23.094;2022-10-26T05:12:03;97710.84;;;11.71;100.00
22755;BME280;11544;42.020;23.094;2022-10-26T05:14:29;97718.28;;;11.27;100.00
22755;BME280;11544;42.020;23.094;2022-10-26T05:16:55;97709.78;;;11.76;100.00
22755;BME280;11544;42.020;23.094;2022-10-26T05:19:22;97718.81;;;12.21;100.00
22755;BME280;11544;42.020;23.094;2022-10-26T05:21:48;97714.09;;;12.05;100.00
22755;BME280;11544;42.020;23.094;2022-10-26T05:24:13;97725.34;;;11.25;100.00
22755;BME280;11544;42.020;23.094;2022-10-26T05:26:39;97720.41;;;11.15;100.00
22755;BME280;11544;42.020;23.094;2022-10-26T05:29:05;97718.03;;;11.64;100.00
22755;BME280;11544;42.020;23.094;2022-10-26T05:31:30;97713.59;;;13.86;96.16
22755;BME280;11544;42.020;23.094;2022-10-26T05:33:56;97703.72;;;12.78;88.66
22755;BME280;11544;42.020;23.094;2022-10-26T05:36:29;97707.50;;;12.94;88.61
22755;BME280;11544;42.020;23.094;2022-10-26T05:39:15;97709.22;;;12.71;87.02
22755;BME280;11544;42.020;23.094;2022-10-26T05:41:42;97714.34;;;13.89;87.46
22755;BME280;11544;42.020;23.094;2022-10-26T05:44:12;97715.13;;;13.47;85.60
22755;BME280;11544;42.020;23.094;2022-10-26T05:47:06;97713.81;;;13.12;84.93
22755;BME280;11544;42.020;23.094;2022-10-26T05:50:04;97717.78;;;12.99;85.51
22755;BME280;11544;42.020;23.094;2022-10-26T05:52:44;97724.50;;;13.53;86.22
22755;BME280;11544;42.020;23.094;2022-10-26T05:55:37;97725.56;;;14.13;81.31
22755;BME280;11544;42.020;23.094;2022-10-26T05:58:24;97735.44;;;14.07;79.61
22755;BME280;11544;42.020;23.094;2022-10-26T06:04:43;97741.94;;;13.76;78.74
22755;BME280;11544;42.020;23.094;2022-10-26T06:07:31;97747.53;;;14.11;78.69
22755;BME280;11544;42.020;23.094;2022-10-26T06:10:03;97741.69;;;14.04;78.75
22755;BME280;11544;42.020;23.094;2022-10-26T06:12:30;97747.16;;;13.98;79.95
22755;BME280;11544;42.020;23.094;2022-10-26T06:14:56;97742.06;;;15.56;74.00
22755;BME280;11544;42.020;23.094;2022-10-26T06:20:37;97750.75;;;14.38;75.02
22755;BME280;11544;42.020;23.094;2022-10-26T06:29:02;97756.47;;;14.48;72.14
22755;BME280;11544;42.020;23.094;2022-10-26T06:31:32;97744.03;;;15.88;72.15
22755;BME280;11544;42.020;23.094;2022-10-26T06:33:59;97759.97;;;15.29;70.30
22755;BME280;11544;42.020;23.094;2022-10-26T06:36:27;97760.63;;;14.53;74.63
22755;BME280;11544;42.020;23.094;2022-10-26T06:39:03;97759.97;;;14.89;72.22
22755;BME280;11544;42.020;23.094;2022-10-26T06:41:31;97763.69;;;15.04;75.96
22755;BME280;11544;42.020;23.094;2022-10-26T06:43:59;97744.28;;;16.88;68.23
22755;BME280;11544;42.020;23.094;2022-10-26T06:46:50;97747.91;;;17.68;64.26
22755;BME280;11544;42.020;23.094;2022-10-26T06:49:30;97743.16;;;17.75;62.38
22755;BME280;11544;42.020;23.094;2022-10-26T06:54:48;97749.78;;;17.98;62.22
22755;BME280;11544;42.020;23.094;2022-10-26T06:57:17;97759.63;;;16.63;64.69
22755;BME280;11544;42.020;23.094;2022-10-26T06:59:55;97757.16;;;16.60;66.40
22755;BME280;11544;42.020;23.094;2022-10-26T07:02:22;97746.53;;;18.09;61.81
22755;BME280;11544;42.020;23.094;2022-10-26T07:04:52;97759.22;;;18.02;61.60
22755;BME280;11544;42.020;23.094;2022-10-26T07:07:26;97756.25;;;17.61;62.73
22755;BME280;11544;42.020;23.094;2022-10-26T07:09:54;97755.19;;;17.31;62.60
22755;BME280;11544;42.020;23.094;2022-10-26T07:12:21;97749.81;;;18.28;61.56
22755;BME280;11544;42.020;23.094;2022-10-26T07:14:47;97751.81;;;17.77;63.01
22755;BME280;11544;42.020;23.094;2022-10-26T07:17:13;97750.13;;;17.60;63.10
22755;BME280;11544;42.020;23.094;2022-10-26T07:19:39;97748.31;;;17.45;63.65
22755;BME280;11544;42.020;23.094;2022-10-26T07:22:05;97746.34;;;17.64;61.33
22755;BME280;11544;42.020;23.094;2022-10-26T07:24:31;97745.00;;;18.05;61.85
22755;BME280;11544;42.020;23.094;2022-10-26T07:26:57;97736.44;;;18.31;60.82
22755;BME280;11544;42.020;23.094;2022-10-26T07:29:25;97731.31;;;18.58;58.55
22755;BME280;11544;42.020;23.094;2022-10-26T07:31:52;97735.25;;;18.96;58.30
22755;BME280;11544;42.020;23.094;2022-10-26T07:34:18;97729.81;;;18.54;58.87
22755;BME280;11544;42.020;23.094;2022-10-26T07:36:45;97736.25;;;18.65;59.12
22755;BME280;11544;42.020;23.094;2022-10-26T07:39:12;97735.16;;;19.26;57.78
22755;BME280;11544;42.020;23.094;2022-10-26T07:41:39;97736.78;;;19.14;56.44
22755;BME280;11544;42.020;23.094;2022-10-26T07:44:05;97735.94;;;18.99;57.14
22755;BME280;11544;42.020;23.094;2022-10-26T07:46:30;97737.09;;;18.65;57.56
22755;BME280;11544;42.020;23.094;2022-10-26T07:49:00;97737.06;;;19.24;56.66
22755;BME280;11544;42.020;23.094;2022-10-26T07:51:30;97732.56;;;19.53;55.76
22755;BME280;11544;42.020;23.094;2022-10-26T07:53:56;97727.31;;;19.24;56.67
22755;BME280;11544;42.020;23.094;2022-10-26T07:56:23;97733.19;;;19.15;56.70
22755;BME280;11544;42.020;23.094;2022-10-26T07:58:54;97732.81;;;19.21;56.05
22755;BME280;11544;42.020;23.094;2022-10-26T08:56:56;97696.69;;;21.83;50.14
22755;BME280;11544;42.020;23.094;2022-10-26T09:02:15;97693.41;;;21.55;50.51
22755;BME280;11544;42.020;23.094;2022-10-26T15:58:30;97544.00;;;20.31;45.15
22755;BME280;11544;42.020;23.094;2022-10-26T16:00:58;97545.72;;;20.19;45.41
22755;BME280;11544;42.020;23.094;2022-10-26T16:03:27;97549.50;;;20.02;46.14
22755;BME280;11544;42.020;23.094;2022-10-26T16:11:31;97568.53;;;19.42;48.54
22755;BME280;11544;42.020;23.094;2022-10-26T16:14:03;97580.16;;;19.25;49.18
22755;BME280;11544;42.020;23.094;2022-10-26T16:16:38;97585.97;;;19.17;48.85
22755;BME280;11544;42.020;23.094;2022-10-26T16:19:04;97587.59;;;19.06;49.17
22755;BME280;11544;42.020;23.094;2022-10-26T16:21:53;97590.41;;;19.17;48.86
22755;BME280;11544;42.020;23.094;2022-10-26T16:24:32;97593.47;;;19.38;48.26
22755;BME280;11544;42.020;23.094;2022-10-26T16:26:57;97602.78;;;19.16;48.87
22755;BME280;11544;42.020;23.094;2022-10-26T16:29:46;97611.06;;;19.10;49.11
22755;BME280;11544;42.020;23.094;2022-10-26T16:33:12;97618.53;;;19.03;49.60
22755;BME280;11544;42.020;23.094;2022-10-26T16:35:38;97625.28;;;18.80;50.18
22755;BME280;11544;42.020;23.094;2022-10-26T16:38:13;97629.91;;;18.77;50.08
22755;BME280;11544;42.020;23.094;2022-10-26T16:40:41;97625.91;;;18.70;50.53
22755;BME280;11544;42.020;23.094;2022-10-26T16:43:09;97626.78;;;18.85;49.99
22755;BME280;11544;42.020;23.094;2022-10-26T17:00:19;97655.56;;;18.30;51.05
22755;BME280;11544;42.020;23.094;2022-10-26T17:10:15;97668.56;;;17.89;52.42
22755;BME280;11544;42.020;23.094;2022-10-26T17:12:54;97673.19;;;17.99;52.36
22755;BME280;11544;42.020;23.094;2022-10-26T17:15:20;97669.72;;;17.99;52.52
22755;BME280;11544;42.020;23.094;2022-10-26T17:20:56;97678.59;;;17.66;53.46
22755;BME280;11544;42.020;23.094;2022-10-26T17:23:29;97680.69;;;17.75;53.35
22755;BME280;11544;42.020;23.094;2022-10-26T17:25:59;97685.25;;;17.58;53.41
22755;BME280;11544;42.020;23.094;2022-10-26T17:28:25;97687.44;;;17.49;53.84
22755;BME280;11544;42.020;23.094;2022-10-26T17:30:51;97691.19;;;17.45;53.61
22755;BME280;11544;42.020;23.094;2022-10-26T17:33:35;97687.69;;;17.13;54.66
22755;BME280;11544;42.020;23.094;2022-10-26T17:36:05;97692.28;;;17.25;54.28
22755;BME280;11544;42.020;23.094;2022-10-26T17:38:48;97694.41;;;17.19;54.51
22755;BME280;11544;42.020;23.094;2022-10-26T17:41:34;97696.03;;;17.21;54.70
22755;BME280;11544;42.020;23.094;2022-10-26T17:44:11;97705.13;;;17.16;55.34
22755;BME280;11544;42.020;23.094;2022-10-26T17:46:39;97712.91;;;17.01;55.58
22755;BME280;11544;42.020;23.094;2022-10-26T17:49:05;97712.94;;;16.84;55.77
22755;BME280;11544;42.020;23.094;2022-10-26T17:58:16;97717.06;;;16.55;57.32
22755;BME280;11544;42.020;23.094;2022-10-26T18:12:01;97731.09;;;16.38;58.57
22755;BME280;11544;42.020;23.094;2022-10-26T18:14:30;97731.06;;;16.20;58.69
22755;BME280;11544;42.020;23.094;2022-10-26T18:16:59;97733.34;;;16.28;58.43
22755;BME280;11544;42.020;23.094;2022-10-26T18:19:35;97744.38;;;16.17;58.76
22755;BME280;11544;42.020;23.094;2022-10-26T18:22:07;97747.13;;;15.97;59.15
22755;BME280;11544;42.020;23.094;2022-10-26T18:24:32;97746.84;;;16.03;59.57
22755;BME280;11544;42.020;23.094;2022-10-26T18:27:06;97752.03;;;16.22;59.30
22755;BME280;11544;42.020;23.094;2022-10-26T18:30:02;97758.53;;;16.15;59.26
22755;BME280;11544;42.020;23.094;2022-10-26T18:32:27;97754.44;;;16.09;59.47
22755;BME280;11544;42.020;23.094;2022-10-26T18:34:55;97763.34;;;16.06;59.89
22755;BME280;11544;42.020;23.094;2022-10-26T18:37:23;97763.91;;;15.94;60.35
22755;BME280;11544;42.020;23.094;2022-10-26T18:40:09;97768.31;;;15.94;60.27
22755;BME280;11544;42.020;23.094;2022-10-26T18:42:38;97770.72;;;15.98;60.45
22755;BME280;11544;42.020;23.094;2022-10-26T18:45:05;97768.44;;;16.09;59.91
22755;BME280;11544;42.020;23.094;2022-10-26T18:47:31;97767.53;;;15.92;59.81
22755;BME280;11544;42.020;23.094;2022-10-26T18:52:49;97782.25;;;15.96;59.17
22755;BME280;11544;42.020;23.094;2022-10-26T18:55:35;97788.66;;;15.90;60.01
22755;BME280;11544;42.020;23.094;2022-10-26T18:58:19;97785.38;;;16.04;59.46
22755;BME280;11544;42.020;23.094;2022-10-26T19:00:50;97789.38;;;15.75;60.49
22755;BME280;11544;42.020;23.094;2022-10-26T19:03:27;97799.81;;;15.76;60.78
22755;BME280;11544;42.020;23.094;2022-10-26T19:05:55;97806.47;;;15.64;60.98
22755;BME280;11544;42.020;23.094;2022-10-26T19:08:36;97805.63;;;15.64;61.57
22755;BME280;11544;42.020;23.094;2022-10-26T19:11:08;97810.66;;;15.50;62.29
22755;BME280;11544;42.020;23.094;2022-10-26T19:13:46;97807.81;;;15.54;62.21
22755;BME280;11544;42.020;23.094;2022-10-26T19:16:19;97816.03;;;15.46;62.37
22755;BME280;11544;42.020;23.094;2022-10-26T19:19:06;97826.13;;;15.37;63.08
22755;BME280;11544;42.020;23.094;2022-10-26T19:21:37;97825.00;;;15.03;64.55
22755;BME280;11544;42.020;23.094;2022-10-26T19:24:03;97834.16;;;15.13;64.15
22755;BME280;11544;42.020;23.094;2022-10-26T19:26:32;97842.16;;;15.31;63.94
22755;BME280;11544;42.020;23.094;2022-10-26T19:29:08;97840.44;;;15.30;63.69
22755;BME280;11544;42.020;23.094;2022-10-26T19:31:36;97845.00;;;15.26;63.67
22755;BME280;11544;42.020;23.094;2022-10-26T19:34:02;97846.19;;;14.98;65.29
22755;BME280;11544;42.020;23.094;2022-10-26T19:36:29;97856.59;;;15.00;65.53
22755;BME280;11544;42.020;23.094;2022-10-26T19:38:57;97859.56;;;15.13;64.91
22755;BME280;11544;42.020;23.094;2022-10-26T19:41:24;97867.25;;;15.17;64.40
22755;BME280;11544;42.020;23.094;2022-10-26T19:43:54;97866.25;;;15.20;64.23
22755;BME280;11544;42.020;23.094;2022-10-26T19:46:23;97872.28;;;14.81;65.78
22755;BME280;11544;42.020;23.094;2022-10-26T19:48:56;97874.47;;;14.92;66.05
22755;BME280;11544;42.020;23.094;2022-10-26T19:51:23;97879.13;;;14.65;66.56
22755;BME280;11544;42.020;23.094;2022-10-26T19:53:50;97884.84;;;14.74;66.61
22755;BME280;11544;42.020;23.094;2022-10-26T19:56:16;97887.56;;;14.49;67.15
22755;BME280;11544;42.020;23.094;2022-10-26T19:58:43;97888.97;;;14.80;66.64
22755;BME280;11544;42.020;23.094;2022-10-26T20:01:11;97889.66;;;14.63;67.20
22755;BME280;11544;42.020;23.094;2022-10-26T20:03:37;97887.28;;;14.79;66.82
22755;BME280;11544;42.020;23.094;2022-10-26T20:06:05;97892.53;;;14.57;67.26
22755;BME280;11544;42.020;23.094;2022-10-26T20:08:34;97893.28;;;14.60;66.96
22755;BME280;11544;42.020;23.094;2022-10-26T20:11:03;97900.88;;;14.67;66.83
22755;BME280;11544;42.020;23.094;2022-10-26T20:13:30;97896.84;;;14.80;66.11
22755;BME280;11544;42.020;23.094;2022-10-26T20:15:56;97900.81;;;14.68;66.33
22755;BME280;11544;42.020;23.094;2022-10-26T20:18:34;97900.88;;;14.67;66.69
22755;BME280;11544;42.020;23.094;2022-10-26T20:21:00;97904.69;;;14.36;67.78
22755;BME280;11544;42.020;23.094;2022-10-26T20:23:30;97909.25;;;14.54;67.82
22755;BME280;11544;42.020;23.094;2022-10-26T20:25:56;97915.00;;;14.40;67.32
22755;BME280;11544;42.020;23.094;2022-10-26T20:28:24;97912.47;;;14.39;67.31
22755;BME280;11544;42.020;23.094;2022-10-26T20:30:50;97916.16;;;14.33;67.78
22755;BME280;11544;42.020;23.094;2022-10-26T20:33:16;97911.41;;;14.21;69.05
22755;BME280;11544;42.020;23.094;2022-10-26T20:35:41;97922.88;;;14.18;69.69
22755;BME280;11544;42.020;23.094;2022-10-26T20:38:15;97930.78;;;14.17;69.52
22755;BME280;11544;42.020;23.094;2022-10-26T20:40:41;97944.31;;;14.06;69.98
22755;BME280;11544;42.020;23.094;2022-10-26T20:43:16;97941.25;;;14.40;68.64
22755;BME280;11544;42.020;23.094;2022-10-26T20:45:43;97945.03;;;14.33;68.05
22755;BME280;11544;42.020;23.094;2022-10-26T20:48:10;97944.00;;;14.37;67.76
22755;BME280;11544;42.020;23.094;2022-10-26T20:50:36;97950.72;;;14.45;67.46
22755;BME280;11544;42.020;23.094;2022-10-26T20:53:17;97952.53;;;14.43;67.79
22755;BME280;11544;42.020;23.094;2022-10-26T20:55:56;97946.31;;;14.45;67.28
22755;BME280;11544;42.020;23.094;2022-10-26T20:58:43;97943.38;;;14.31;68.25
22755;BME280;11544;42.020;23.094;2022-10-26T21:01:31;97953.03;;;14.07;68.90
22755;BME280;11544;42.020;23.094;2022-10-26T21:04:02;97952.88;;;14.11;69.38
22755;BME280;11544;42.020;23.094;2022-10-26T21:06:29;97956.84;;;14.22;68.65
22755;BME280;11544;42.020;23.094;2022-10-26T21:08:57;97956.25;;;14.15;68.95
22755;BME280;11544;42.020;23.094;2022-10-26T21:11:28;97963.34;;;14.11;69.27
22755;BME280;11544;42.020;23.094;2022-10-26T21:13:53;97971.78;;;13.96;69.94
22755;BME280;11544;42.020;23.094;2022-10-26T21:16:19;97975.50;;;14.14;69.56
22755;BME280;11544;42.020;23.094;2022-10-26T21:18:50;97976.16;;;13.95;69.94
22755;BME280;11544;42.020;23.094;2022-10-26T21:21:19;97971.25;;;13.86;70.53
22755;BME280;11544;42.020;23.094;2022-10-26T21:23:45;97968.59;;;13.88;70.85
22755;BME280;11544;42.020;23.094;2022-10-26T21:26:11;97975.97;;;13.76;70.83
22755;BME280;11544;42.020;23.094;2022-10-26T21:28:43;97979.44;;;13.77;71.20
22755;BME280;11544;42.020;23.094;2022-10-26T21:31:13;97977.59;;;13.81;71.13
22755;BME280;11544;42.020;23.094;2022-10-26T21:33:39;97973.19;;;13.81;70.68
22755;BME280;11544;42.020;23.094;2022-10-26T21:36:08;97979.16;;;13.61;71.25
22755;BME280;11544;42.020;23.094;2022-10-26T21:38:37;97980.13;;;13.59;72.10
22755;BME280;11544;42.020;23.094;2022-10-26T21:41:11;97986.22;;;13.59;72.47
22755;BME280;11544;42.020;23.094;2022-10-26T21:43:41;97985.53;;;13.54;72.59
22755;BME280;11544;42.020;23.094;2022-10-26T21:46:11;97984.25;;;13.66;72.54
22755;BME280;11544;42.020;23.094;2022-10-26T21:48:38;97981.56;;;13.67;72.14
22755;BME280;11544;42.020;23.094;2022-10-26T21:51:10;97986.97;;;13.38;73.12
22755;BME280;11544;42.020;23.094;2022-10-26T21:53:40;97990.84;;;13.51;73.37
22755;BME280;11544;42.020;23.094;2022-10-26T21:56:38;97995.78;;;13.35;72.97
22755;BME280;11544;42.020;23.094;2022-10-26T21:59:04;98000.91;;;13.38;73.43
22755;BME280;11544;42.020;23.094;2022-10-26T22:01:37;97995.56;;;13.41;73.21
22755;BME280;11544;42.020;23.094;2022-10-26T22:04:03;97993.22;;;13.33;73.52
22755;BME280;11544;42.020;23.094;2022-10-26T22:06:29;97997.22;;;13.17;74.61
22755;BME280;11544;42.020;23.094;2022-10-26T22:08:55;97997.72;;;13.30;73.76
22755;BME280;11544;42.020;23.094;2022-10-26T22:11:22;98003.16;;;13.22;73.89
22755;BME280;11544;42.020;23.094;2022-10-26T22:13:49;98000.38;;;13.28;74.16
22755;BME280;11544;42.020;23.094;2022-10-26T22:16:19;97995.38;;;13.47;74.11
22755;BME280;11544;42.020;23.094;2022-10-26T22:18:49;98009.16;;;12.99;75.67
22755;BME280;11544;42.020;23.094;2022-10-26T22:21:17;98008.19;;;13.30;75.20
22755;BME280;11544;42.020;23.094;2022-10-26T22:23:46;98010.34;;;13.16;75.06
22755;BME280;11544;42.020;23.094;2022-10-26T22:26:19;98015.09;;;13.58;74.06
22755;BME280;11544;42.020;23.094;2022-10-26T22:28:48;98015.16;;;13.56;73.44
22755;BME280;11544;42.020;23.094;2022-10-26T22:31:26;98021.22;;;13.03;74.67
22755;BME280;11544;42.020;23.094;2022-10-26T22:34:21;98019.72;;;12.68;76.18
22755;BME280;11544;42.020;23.094;2022-10-26T22:36:47;98017.44;;;13.13;75.35
22755;BME280;11544;42.020;23.094;2022-10-26T22:39:13;98017.16;;;12.95;74.97
22755;BME280;11544;42.020;23.094;2022-10-26T22:41:39;98016.50;;;12.88;76.08